sensor_id;sensor_type;location;lat;lon;timestamp;temperature;humidity
49184;DHT22;35021;49.214;12.270;2023-11-19T00:00:29;21.70;35.40
49184;DHT22;35021;49.214;12.270;2023-11-19T00:02:56;21.60;35.50
49184;DHT22;35021;49.214;12.270;2023-11-19T00:05:23;21.60;35.50
49184;DHT22;35021;49.214;12.270;2023-11-19T00:07:50;21.60;35.60
49184;DHT22;35021;49.214;12.270;2023-11-19T00:10:17;21.50;35.60
49184;DHT22;35021;49.214;12.270;2023-11-19T00:12:48;21.50;35.70
49184;DHT22;35021;49.214;12.270;2023-11-19T00:15:16;21.50;35.80
49184;DHT22;35021;49.214;12.270;2023-11-19T00:17:46;21.50;35.70
49184;DHT22;35021;49.214;12.270;2023-11-19T00:22:41;21.50;35.80
49184;DHT22;35021;49.214;12.270;2023-11-19T00:25:14;21.50;35.80
49184;DHT22;35021;49.214;12.270;2023-11-19T00:27:41;21.50;35.80
49184;DHT22;35021;49.214;12.270;2023-11-19T00:30:11;21.50;35.80
49184;DHT22;35021;49.214;12.270;2023-11-19T00:32:39;21.50;35.80
49184;DHT22;35021;49.214;12.270;2023-11-19T00:35:06;21.50;35.80
49184;DHT22;35021;49.214;12.270;2023-11-19T00:37:34;21.50;35.70
49184;DHT22;35021;49.214;12.270;2023-11-19T00:40:01;21.50;35.80
49184;DHT22;35021;49.214;12.270;2023-11-19T00:42:32;21.50;35.70
49184;DHT22;35021;49.214;12.270;2023-11-19T00:44:59;21.50;35.70
49184;DHT22;35021;49.214;12.270;2023-11-19T00:47:29;21.50;35.70
49184;DHT22;35021;49.214;12.270;2023-11-19T00:49:58;21.50;35.70
49184;DHT22;35021;49.214;12.270;2023-11-19T00:52:24;21.50;35.70
49184;DHT22;35021;49.214;12.270;2023-11-19T00:54:52;21.60;35.70
49184;DHT22;35021;49.214;12.270;2023-11-19T00:57:19;21.60;35.80
49184;DHT22;35021;49.214;12.270;2023-11-19T00:59:46;21.60;35.70
49184;DHT22;35021;49.214;12.270;2023-11-19T01:02:14;21.60;35.80
49184;DHT22;35021;49.214;12.270;2023-11-19T01:04:42;21.60;35.70
49184;DHT22;35021;49.214;12.270;2023-11-19T01:07:09;21.60;35.70
49184;DHT22;35021;49.214;12.270;2023-11-19T01:09:41;21.60;35.70
49184;DHT22;35021;49.214;12.270;2023-11-19T01:12:08;21.60;35.70
49184;DHT22;35021;49.214;12.270;2023-11-19T01:14:37;21.60;35.80
49184;DHT22;35021;49.214;12.270;2023-11-19T01:17:04;21.60;35.80
49184;DHT22;35021;49.214;12.270;2023-11-19T01:19:31;21.60;35.70
49184;DHT22;35021;49.214;12.270;2023-11-19T01:21:58;21.60;35.70
49184;DHT22;35021;49.214;12.270;2023-11-19T01:24:26;21.60;35.70
49184;DHT22;35021;49.214;12.270;2023-11-19T01:26:55;21.60;35.80
49184;DHT22;35021;49.214;12.270;2023-11-19T01:29:24;21.70;35.80
49184;DHT22;35021;49.214;12.270;2023-11-19T01:31:51;21.60;35.70
49184;DHT22;35021;49.214;12.270;2023-11-19T01:34:18;21.70;35.80
49184;DHT22;35021;49.214;12.270;2023-11-19T01:36:46;21.60;35.80
49184;DHT22;35021;49.214;12.270;2023-11-19T01:39:14;21.70;35.80
49184;DHT22;35021;49.214;12.270;2023-11-19T01:41:42;21.60;35.80
49184;DHT22;35021;49.214;12.270;2023-11-19T01:44:09;21.70;35.80
49184;DHT22;35021;49.214;12.270;2023-11-19T01:46:42;21.60;35.70
49184;DHT22;35021;49.214;12.270;2023-11-19T01:49:10;21.70;35.80
49184;DHT22;35021;49.214;12.270;2023-11-19T01:51:39;21.70;35.80
49184;DHT22;35021;49.214;12.270;2023-11-19T01:54:06;21.60;35.80
49184;DHT22;35021;49.214;12.270;2023-11-19T01:56:34;21.60;35.80
49184;DHT22;35021;49.214;12.270;2023-11-19T01:59:01;21.60;35.90
49184;DHT22;35021;49.214;12.270;2023-11-19T02:01:29;21.60;35.90
49184;DHT22;35021;49.214;12.270;2023-11-19T02:03:56;21.50;35.80
49184;DHT22;35021;49.214;12.270;2023-11-19T02:06:25;21.50;35.90
49184;DHT22;35021;49.214;12.270;2023-11-19T02:08:52;21.50;36.00
49184;DHT22;35021;49.214;12.270;2023-11-19T02:11:19;21.40;36.00
49184;DHT22;35021;49.214;12.270;2023-11-19T02:13:46;21.40;36.20
49184;DHT22;35021;49.214;12.270;2023-11-19T02:16:13;21.30;36.20
49184;DHT22;35021;49.214;12.270;2023-11-19T02:18:41;21.30;36.40
49184;DHT22;35021;49.214;12.270;2023-11-19T02:21:08;21.20;37.10
49184;DHT22;35021;49.214;12.270;2023-11-19T02:23:37;21.20;36.50
49184;DHT22;35021;49.214;12.270;2023-11-19T02:28:33;21.20;36.70
49184;DHT22;35021;49.214;12.270;2023-11-19T02:31:00;21.10;36.60
49184;DHT22;35021;49.214;12.270;2023-11-19T02:33:27;21.10;36.70
49184;DHT22;35021;49.214;12.270;2023-11-19T02:35:54;21.10;36.70
49184;DHT22;35021;49.214;12.270;2023-11-19T02:38:22;21.10;36.70
49184;DHT22;35021;49.214;12.270;2023-11-19T02:40:49;21.10;36.70
49184;DHT22;35021;49.214;12.270;2023-11-19T02:43:16;21.10;36.70
49184;DHT22;35021;49.214;12.270;2023-11-19T02:45:43;21.10;36.80
49184;DHT22;35021;49.214;12.270;2023-11-19T02:48:12;21.10;36.70
49184;DHT22;35021;49.214;12.270;2023-11-19T02:50:41;21.20;36.70
49184;DHT22;35021;49.214;12.270;2023-11-19T02:53:08;21.20;36.70
49184;DHT22;35021;49.214;12.270;2023-11-19T02:55:35;21.20;36.70
49184;DHT22;35021;49.214;12.270;2023-11-19T02:58:05;21.20;36.70
49184;DHT22;35021;49.214;12.270;2023-11-19T03:00:47;21.20;36.70
49184;DHT22;35021;49.214;12.270;2023-11-19T03:03:29;21.20;36.60
49184;DHT22;35021;49.214;12.270;2023-11-19T03:06:05;21.20;36.70
49184;DHT22;35021;49.214;12.270;2023-11-19T03:08:34;21.20;36.60
49184;DHT22;35021;49.214;12.270;2023-11-19T03:11:02;21.20;36.60
49184;DHT22;35021;49.214;12.270;2023-11-19T03:13:29;21.20;36.60
49184;DHT22;35021;49.214;12.270;2023-11-19T03:15:55;21.30;36.60
49184;DHT22;35021;49.214;12.270;2023-11-19T03:18:23;21.30;36.60
49184;DHT22;35021;49.214;12.270;2023-11-19T03:20:50;21.30;36.60
49184;DHT22;35021;49.214;12.270;2023-11-19T03:23:17;21.30;36.60
49184;DHT22;35021;49.214;12.270;2023-11-19T03:25:43;21.30;36.60
49184;DHT22;35021;49.214;12.270;2023-11-19T03:28:10;21.30;36.60
49184;DHT22;35021;49.214;12.270;2023-11-19T03:30:38;21.30;36.60
49184;DHT22;35021;49.214;12.270;2023-11-19T03:33:05;21.30;36.50
49184;DHT22;35021;49.214;12.270;2023-11-19T03:35:32;21.30;36.50
49184;DHT22;35021;49.214;12.270;2023-11-19T03:38:00;21.30;36.50
49184;DHT22;35021;49.214;12.270;2023-11-19T03:40:28;21.30;36.50
49184;DHT22;35021;49.214;12.270;2023-11-19T03:42:56;21.30;36.50
49184;DHT22;35021;49.214;12.270;2023-11-19T03:45:25;21.30;36.50
49184;DHT22;35021;49.214;12.270;2023-11-19T03:47:52;21.30;36.50
49184;DHT22;35021;49.214;12.270;2023-11-19T03:50:19;21.30;36.50
49184;DHT22;35021;49.214;12.270;2023-11-19T03:52:47;21.30;36.50
49184;DHT22;35021;49.214;12.270;2023-11-19T03:55:14;21.30;36.50
49184;DHT22;35021;49.214;12.270;2023-11-19T03:57:41;21.30;36.50
49184;DHT22;35021;49.214;12.270;2023-11-19T04:00:08;21.30;36.50
49184;DHT22;35021;49.214;12.270;2023-11-19T04:02:41;21.30;36.50
49184;DHT22;35021;49.214;12.270;2023-11-19T04:05:08;21.30;36.50
49184;DHT22;35021;49.214;12.270;2023-11-19T04:07:36;21.30;36.50
49184;DHT22;35021;49.214;12.270;2023-11-19T04:10:04;21.30;36.40
49184;DHT22;35021;49.214;12.270;2023-11-19T04:12:31;21.30;36.50
49184;DHT22;35021;49.214;12.270;2023-11-19T04:14:58;21.30;36.50
49184;DHT22;35021;49.214;12.270;2023-11-19T04:17:28;21.30;36.50
49184;DHT22;35021;49.214;12.270;2023-11-19T04:19:57;21.30;36.50
49184;DHT22;35021;49.214;12.270;2023-11-19T04:22:24;21.30;36.50
49184;DHT22;35021;49.214;12.270;2023-11-19T04:24:51;21.30;36.50
49184;DHT22;35021;49.214;12.270;2023-11-19T04:27:18;21.30;36.50
49184;DHT22;35021;49.214;12.270;2023-11-19T04:29:45;21.30;36.50
49184;DHT22;35021;49.214;12.270;2023-11-19T04:32:13;21.30;36.50
49184;DHT22;35021;49.214;12.270;2023-11-19T04:34:40;21.30;36.60
49184;DHT22;35021;49.214;12.270;2023-11-19T04:37:08;21.30;36.50
49184;DHT22;35021;49.214;12.270;2023-11-19T04:39:39;21.30;36.50
49184;DHT22;35021;49.214;12.270;2023-11-19T04:42:06;21.30;36.60
49184;DHT22;35021;49.214;12.270;2023-11-19T04:44:33;21.30;36.60
49184;DHT22;35021;49.214;12.270;2023-11-19T04:47:00;21.30;36.60
49184;DHT22;35021;49.214;12.270;2023-11-19T04:49:28;21.30;36.60
49184;DHT22;35021;49.214;12.270;2023-11-19T04:51:55;21.30;36.60
49184;DHT22;35021;49.214;12.270;2023-11-19T04:54:22;21.30;36.60
49184;DHT22;35021;49.214;12.270;2023-11-19T04:56:49;21.30;36.70
49184;DHT22;35021;49.214;12.270;2023-11-19T04:59:17;21.30;36.70
49184;DHT22;35021;49.214;12.270;2023-11-19T05:01:47;21.30;36.80
49184;DHT22;35021;49.214;12.270;2023-11-19T05:04:15;21.20;36.80
49184;DHT22;35021;49.214;12.270;2023-11-19T05:06:42;21.20;36.80
49184;DHT22;35021;49.214;12.270;2023-11-19T05:09:09;21.20;36.90
49184;DHT22;35021;49.214;12.270;2023-11-19T05:11:36;21.30;36.90
49184;DHT22;35021;49.214;12.270;2023-11-19T05:14:17;21.30;36.90
49184;DHT22;35021;49.214;12.270;2023-11-19T05:16:46;21.30;36.90
49184;DHT22;35021;49.214;12.270;2023-11-19T05:19:13;21.40;36.80
49184;DHT22;35021;49.214;12.270;2023-11-19T05:21:41;21.50;36.70
49184;DHT22;35021;49.214;12.270;2023-11-19T05:24:08;21.60;36.70
49184;DHT22;35021;49.214;12.270;2023-11-19T05:26:35;21.70;36.60
49184;DHT22;35021;49.214;12.270;2023-11-19T05:29:02;21.70;36.40
49184;DHT22;35021;49.214;12.270;2023-11-19T05:31:29;21.80;37.00
49184;DHT22;35021;49.214;12.270;2023-11-19T05:34:01;21.90;36.30
49184;DHT22;35021;49.214;12.270;2023-11-19T05:36:28;22.00;36.20
49184;DHT22;35021;49.214;12.270;2023-11-19T05:38:56;22.00;36.00
49184;DHT22;35021;49.214;12.270;2023-11-19T05:41:23;22.10;36.00
49184;DHT22;35021;49.214;12.270;2023-11-19T05:43:50;22.20;36.00
49184;DHT22;35021;49.214;12.270;2023-11-19T05:46:17;22.20;35.90
49184;DHT22;35021;49.214;12.270;2023-11-19T05:48:47;22.20;35.90
49184;DHT22;35021;49.214;12.270;2023-11-19T05:51:15;22.20;35.90
49184;DHT22;35021;49.214;12.270;2023-11-19T05:53:44;22.10;35.80
49184;DHT22;35021;49.214;12.270;2023-11-19T05:56:13;22.10;35.90
49184;DHT22;35021;49.214;12.270;2023-11-19T05:58:43;22.10;35.90
49184;DHT22;35021;49.214;12.270;2023-11-19T06:01:12;22.10;35.90
49184;DHT22;35021;49.214;12.270;2023-11-19T06:03:39;22.10;35.90
49184;DHT22;35021;49.214;12.270;2023-11-19T06:06:06;22.10;35.90
49184;DHT22;35021;49.214;12.270;2023-11-19T06:08:33;22.10;35.80
49184;DHT22;35021;49.214;12.270;2023-11-19T06:11:00;22.20;35.80
49184;DHT22;35021;49.214;12.270;2023-11-19T06:13:28;22.20;35.70
49184;DHT22;35021;49.214;12.270;2023-11-19T06:15:58;22.30;35.60
49184;DHT22;35021;49.214;12.270;2023-11-19T06:18:25;22.30;35.50
49184;DHT22;35021;49.214;12.270;2023-11-19T06:20:52;22.40;35.50
49184;DHT22;35021;49.214;12.270;2023-11-19T06:23:19;22.40;35.40
49184;DHT22;35021;49.214;12.270;2023-11-19T06:25:46;22.50;35.40
49184;DHT22;35021;49.214;12.270;2023-11-19T06:28:13;22.50;35.40
49184;DHT22;35021;49.214;12.270;2023-11-19T06:30:41;22.50;35.40
49184;DHT22;35021;49.214;12.270;2023-11-19T06:33:12;22.50;35.40
49184;DHT22;35021;49.214;12.270;2023-11-19T06:35:39;22.50;35.50
49184;DHT22;35021;49.214;12.270;2023-11-19T06:38:06;22.40;35.50
49184;DHT22;35021;49.214;12.270;2023-11-19T06:40:33;22.40;35.60
49184;DHT22;35021;49.214;12.270;2023-11-19T06:43:02;22.40;35.70
49184;DHT22;35021;49.214;12.270;2023-11-19T06:45:30;22.30;35.70
49184;DHT22;35021;49.214;12.270;2023-11-19T06:47:57;22.30;35.80
49184;DHT22;35021;49.214;12.270;2023-11-19T06:50:25;22.30;35.80
49184;DHT22;35021;49.214;12.270;2023-11-19T06:52:52;22.40;35.80
49184;DHT22;35021;49.214;12.270;2023-11-19T06:55:19;22.40;35.80
49184;DHT22;35021;49.214;12.270;2023-11-19T06:57:46;22.40;35.80
49184;DHT22;35021;49.214;12.270;2023-11-19T07:00:13;22.40;35.80
49184;DHT22;35021;49.214;12.270;2023-11-19T07:02:40;22.40;35.80
49184;DHT22;35021;49.214;12.270;2023-11-19T07:05:08;22.50;35.90
49184;DHT22;35021;49.214;12.270;2023-11-19T07:07:35;22.50;35.90
49184;DHT22;35021;49.214;12.270;2023-11-19T07:10:02;22.50;35.90
49184;DHT22;35021;49.214;12.270;2023-11-19T07:12:31;22.50;36.00
49184;DHT22;35021;49.214;12.270;2023-11-19T07:14:58;22.50;36.00
49184;DHT22;35021;49.214;12.270;2023-11-19T07:17:25;22.40;36.10
49184;DHT22;35021;49.214;12.270;2023-11-19T07:19:52;22.40;36.30
49184;DHT22;35021;49.214;12.270;2023-11-19T07:22:19;22.30;36.40
49184;DHT22;35021;49.214;12.270;2023-11-19T07:24:47;22.30;36.50
49184;DHT22;35021;49.214;12.270;2023-11-19T07:27:14;22.20;36.60
49184;DHT22;35021;49.214;12.270;2023-11-19T07:29:42;22.10;36.70
49184;DHT22;35021;49.214;12.270;2023-11-19T07:32:09;22.10;36.80
49184;DHT22;35021;49.214;12.270;2023-11-19T07:34:37;22.10;36.90
49184;DHT22;35021;49.214;12.270;2023-11-19T07:37:04;22.10;37.00
49184;DHT22;35021;49.214;12.270;2023-11-19T07:39:31;22.10;37.00
49184;DHT22;35021;49.214;12.270;2023-11-19T07:41:59;22.10;36.90
49184;DHT22;35021;49.214;12.270;2023-11-19T07:44:27;22.10;36.90
49184;DHT22;35021;49.214;12.270;2023-11-19T07:46:54;22.20;36.90
49184;DHT22;35021;49.214;12.270;2023-11-19T07:49:21;22.20;36.90
49184;DHT22;35021;49.214;12.270;2023-11-19T07:51:48;22.20;36.80
49184;DHT22;35021;49.214;12.270;2023-11-19T07:54:15;22.30;36.80
49184;DHT22;35021;49.214;12.270;2023-11-19T07:56:42;22.30;36.80
49184;DHT22;35021;49.214;12.270;2023-11-19T07:59:09;22.40;36.70
49184;DHT22;35021;49.214;12.270;2023-11-19T08:01:36;22.30;36.70
49184;DHT22;35021;49.214;12.270;2023-11-19T08:04:03;22.40;36.70
49184;DHT22;35021;49.214;12.270;2023-11-19T08:06:30;22.30;36.80
49184;DHT22;35021;49.214;12.270;2023-11-19T08:08:58;22.30;36.80
49184;DHT22;35021;49.214;12.270;2023-11-19T08:11:26;22.20;36.90
49184;DHT22;35021;49.214;12.270;2023-11-19T08:13:53;22.20;37.10
49184;DHT22;35021;49.214;12.270;2023-11-19T08:16:22;22.10;37.20
49184;DHT22;35021;49.214;12.270;2023-11-19T08:18:49;22.00;37.30
49184;DHT22;35021;49.214;12.270;2023-11-19T08:21:16;22.00;37.50
49184;DHT22;35021;49.214;12.270;2023-11-19T08:23:43;22.00;37.60
49184;DHT22;35021;49.214;12.270;2023-11-19T08:26:10;22.00;37.70
49184;DHT22;35021;49.214;12.270;2023-11-19T08:28:37;22.00;37.70
49184;DHT22;35021;49.214;12.270;2023-11-19T08:31:04;22.00;37.80
49184;DHT22;35021;49.214;12.270;2023-11-19T08:33:32;22.10;37.80
49184;DHT22;35021;49.214;12.270;2023-11-19T08:35:59;22.00;37.80
49184;DHT22;35021;49.214;12.270;2023-11-19T08:38:27;22.10;37.80
49184;DHT22;35021;49.214;12.270;2023-11-19T08:40:58;22.10;37.80
49184;DHT22;35021;49.214;12.270;2023-11-19T08:43:27;22.20;37.80
49184;DHT22;35021;49.214;12.270;2023-11-19T08:45:55;22.20;37.70
49184;DHT22;35021;49.214;12.270;2023-11-19T08:48:22;22.30;37.80
49184;DHT22;35021;49.214;12.270;2023-11-19T08:50:50;22.30;37.80
49184;DHT22;35021;49.214;12.270;2023-11-19T08:53:18;22.30;37.70
49184;DHT22;35021;49.214;12.270;2023-11-19T08:55:46;22.30;37.80
49184;DHT22;35021;49.214;12.270;2023-11-19T08:58:14;22.30;37.80
49184;DHT22;35021;49.214;12.270;2023-11-19T09:00:41;22.30;37.90
49184;DHT22;35021;49.214;12.270;2023-11-19T09:03:09;22.20;38.00
49184;DHT22;35021;49.214;12.270;2023-11-19T09:05:37;22.20;38.10
49184;DHT22;35021;49.214;12.270;2023-11-19T09:08:05;22.10;38.20
49184;DHT22;35021;49.214;12.270;2023-11-19T09:10:33;22.10;38.50
49184;DHT22;35021;49.214;12.270;2023-11-19T09:13:00;22.00;38.60
49184;DHT22;35021;49.214;12.270;2023-11-19T09:15:28;22.00;38.70
49184;DHT22;35021;49.214;12.270;2023-11-19T09:17:55;22.00;38.80
49184;DHT22;35021;49.214;12.270;2023-11-19T09:20:23;22.00;38.90
49184;DHT22;35021;49.214;12.270;2023-11-19T09:22:50;22.00;39.00
49184;DHT22;35021;49.214;12.270;2023-11-19T09:25:17;22.10;39.00
49184;DHT22;35021;49.214;12.270;2023-11-19T09:27:44;22.10;39.00
49184;DHT22;35021;49.214;12.270;2023-11-19T09:30:12;22.20;39.10
49184;DHT22;35021;49.214;12.270;2023-11-19T09:32:39;22.20;39.10
49184;DHT22;35021;49.214;12.270;2023-11-19T09:35:07;22.20;39.10
49184;DHT22;35021;49.214;12.270;2023-11-19T09:37:35;22.30;39.10
49184;DHT22;35021;49.214;12.270;2023-11-19T09:40:02;22.30;39.10
49184;DHT22;35021;49.214;12.270;2023-11-19T09:42:30;22.40;39.10
49184;DHT22;35021;49.214;12.270;2023-11-19T09:45:02;22.30;39.10
49184;DHT22;35021;49.214;12.270;2023-11-19T09:47:32;22.30;39.20
49184;DHT22;35021;49.214;12.270;2023-11-19T09:50:00;22.30;39.20
49184;DHT22;35021;49.214;12.270;2023-11-19T09:52:28;22.30;39.30
49184;DHT22;35021;49.214;12.270;2023-11-19T09:54:55;22.30;39.40
49184;DHT22;35021;49.214;12.270;2023-11-19T09:57:23;22.20;39.40
49184;DHT22;35021;49.214;12.270;2023-11-19T09:59:50;22.20;39.60
49184;DHT22;35021;49.214;12.270;2023-11-19T10:02:18;22.20;39.70
49184;DHT22;35021;49.214;12.270;2023-11-19T10:04:45;22.20;39.70
49184;DHT22;35021;49.214;12.270;2023-11-19T10:07:14;22.30;39.80
49184;DHT22;35021;49.214;12.270;2023-11-19T10:09:41;22.30;39.80
49184;DHT22;35021;49.214;12.270;2023-11-19T10:12:08;22.30;39.70
49184;DHT22;35021;49.214;12.270;2023-11-19T10:14:35;22.40;39.70
49184;DHT22;35021;49.214;12.270;2023-11-19T10:17:06;22.40;39.70
49184;DHT22;35021;49.214;12.270;2023-11-19T10:19:34;22.50;39.90
49184;DHT22;35021;49.214;12.270;2023-11-19T10:22:04;22.50;39.90
49184;DHT22;35021;49.214;12.270;2023-11-19T10:24:32;22.60;39.90
49184;DHT22;35021;49.214;12.270;2023-11-19T10:27:01;22.60;40.00
49184;DHT22;35021;49.214;12.270;2023-11-19T10:29:30;22.60;40.00
49184;DHT22;35021;49.214;12.270;2023-11-19T10:31:57;22.70;40.10
49184;DHT22;35021;49.214;12.270;2023-11-19T10:34:44;22.70;40.20
49184;DHT22;35021;49.214;12.270;2023-11-19T10:37:27;22.80;40.30
49184;DHT22;35021;49.214;12.270;2023-11-19T10:39:55;22.80;40.40
49184;DHT22;35021;49.214;12.270;2023-11-19T10:42:22;22.80;40.40
49184;DHT22;35021;49.214;12.270;2023-11-19T10:44:49;22.90;41.10
49184;DHT22;35021;49.214;12.270;2023-11-19T10:47:18;22.90;40.40
49184;DHT22;35021;49.214;12.270;2023-11-19T10:49:46;22.90;40.50
49184;DHT22;35021;49.214;12.270;2023-11-19T10:52:14;23.00;40.60
49184;DHT22;35021;49.214;12.270;2023-11-19T10:54:44;23.00;40.50
49184;DHT22;35021;49.214;12.270;2023-11-19T10:57:11;23.00;40.50
49184;DHT22;35021;49.214;12.270;2023-11-19T10:59:39;23.10;40.60
49184;DHT22;35021;49.214;12.270;2023-11-19T11:02:07;23.10;40.60
49184;DHT22;35021;49.214;12.270;2023-11-19T11:04:39;23.10;40.60
49184;DHT22;35021;49.214;12.270;2023-11-19T11:07:06;23.20;40.60
49184;DHT22;35021;49.214;12.270;2023-11-19T11:09:34;23.20;40.60
49184;DHT22;35021;49.214;12.270;2023-11-19T11:12:01;23.30;40.50
49184;DHT22;35021;49.214;12.270;2023-11-19T11:14:28;23.40;40.40
49184;DHT22;35021;49.214;12.270;2023-11-19T11:16:55;23.40;40.40
49184;DHT22;35021;49.214;12.270;2023-11-19T11:19:23;23.50;40.40
49184;DHT22;35021;49.214;12.270;2023-11-19T11:21:50;23.50;40.20
49184;DHT22;35021;49.214;12.270;2023-11-19T11:24:28;23.50;40.20
49184;DHT22;35021;49.214;12.270;2023-11-19T11:27:03;23.50;40.30
49184;DHT22;35021;49.214;12.270;2023-11-19T11:32:25;23.50;40.30
49184;DHT22;35021;49.214;12.270;2023-11-19T11:37:44;23.40;40.40
49184;DHT22;35021;49.214;12.270;2023-11-19T11:40:17;23.40;40.60
49184;DHT22;35021;49.214;12.270;2023-11-19T11:42:45;23.40;40.80
49184;DHT22;35021;49.214;12.270;2023-11-19T11:45:13;23.30;40.80
49184;DHT22;35021;49.214;12.270;2023-11-19T11:50:14;23.20;41.00
49184;DHT22;35021;49.214;12.270;2023-11-19T11:58:07;23.10;41.40
49184;DHT22;35021;49.214;12.270;2023-11-19T12:00:39;23.00;41.50
49184;DHT22;35021;49.214;12.270;2023-11-19T12:03:07;23.00;41.60
49184;DHT22;35021;49.214;12.270;2023-11-19T12:05:41;22.90;41.60
49184;DHT22;35021;49.214;12.270;2023-11-19T12:08:12;22.90;41.70
49184;DHT22;35021;49.214;12.270;2023-11-19T12:10:45;22.90;41.80
49184;DHT22;35021;49.214;12.270;2023-11-19T12:13:14;22.90;41.90
49184;DHT22;35021;49.214;12.270;2023-11-19T12:18:29;22.80;42.00
49184;DHT22;35021;49.214;12.270;2023-11-19T12:20:56;22.80;42.10
49184;DHT22;35021;49.214;12.270;2023-11-19T12:23:23;22.80;42.20
49184;DHT22;35021;49.214;12.270;2023-11-19T12:25:51;22.80;42.30
49184;DHT22;35021;49.214;12.270;2023-11-19T12:28:18;22.70;42.30
49184;DHT22;35021;49.214;12.270;2023-11-19T12:30:45;22.70;42.40
49184;DHT22;35021;49.214;12.270;2023-11-19T12:33:14;22.70;42.80
49184;DHT22;35021;49.214;12.270;2023-11-19T12:35:42;22.70;43.20
49184;DHT22;35021;49.214;12.270;2023-11-19T12:38:22;22.70;43.10
49184;DHT22;35021;49.214;12.270;2023-11-19T12:41:08;22.70;43.30
49184;DHT22;35021;49.214;12.270;2023-11-19T12:43:38;22.70;43.40
49184;DHT22;35021;49.214;12.270;2023-11-19T12:46:20;22.60;43.30
49184;DHT22;35021;49.214;12.270;2023-11-19T12:48:48;22.60;43.40
49184;DHT22;35021;49.214;12.270;2023-11-19T12:51:15;22.60;43.50
49184;DHT22;35021;49.214;12.270;2023-11-19T12:53:49;22.60;43.60
49184;DHT22;35021;49.214;12.270;2023-11-19T12:56:17;22.60;43.60
49184;DHT22;35021;49.214;12.270;2023-11-19T12:58:44;22.60;43.80
49184;DHT22;35021;49.214;12.270;2023-11-19T13:01:15;22.60;43.80
49184;DHT22;35021;49.214;12.270;2023-11-19T13:03:43;22.60;43.70
49184;DHT22;35021;49.214;12.270;2023-11-19T13:06:11;22.70;43.70
49184;DHT22;35021;49.214;12.270;2023-11-19T13:08:39;22.80;43.30
49184;DHT22;35021;49.214;12.270;2023-11-19T13:11:06;22.90;43.20
49184;DHT22;35021;49.214;12.270;2023-11-19T13:16:22;23.00;43.40
49184;DHT22;35021;49.214;12.270;2023-11-19T13:18:49;23.10;43.40
49184;DHT22;35021;49.214;12.270;2023-11-19T13:21:16;23.20;43.40
49184;DHT22;35021;49.214;12.270;2023-11-19T13:23:43;23.30;43.40
49184;DHT22;35021;49.214;12.270;2023-11-19T13:26:11;23.30;43.30
49184;DHT22;35021;49.214;12.270;2023-11-19T13:28:38;23.40;43.20
49184;DHT22;35021;49.214;12.270;2023-11-19T13:31:05;23.40;43.20
49184;DHT22;35021;49.214;12.270;2023-11-19T13:33:33;23.50;43.10
49184;DHT22;35021;49.214;12.270;2023-11-19T13:36:00;23.50;42.90
49184;DHT22;35021;49.214;12.270;2023-11-19T13:38:33;23.50;42.50
49184;DHT22;35021;49.214;12.270;2023-11-19T13:41:00;23.50;42.50
49184;DHT22;35021;49.214;12.270;2023-11-19T13:43:27;23.60;42.40
49184;DHT22;35021;49.214;12.270;2023-11-19T13:45:54;23.60;42.40
49184;DHT22;35021;49.214;12.270;2023-11-19T13:48:22;23.70;42.30
49184;DHT22;35021;49.214;12.270;2023-11-19T13:50:49;23.70;42.30
49184;DHT22;35021;49.214;12.270;2023-11-19T13:53:16;23.70;42.20
49184;DHT22;35021;49.214;12.270;2023-11-19T13:55:43;23.80;42.20
49184;DHT22;35021;49.214;12.270;2023-11-19T13:58:10;23.80;42.10
49184;DHT22;35021;49.214;12.270;2023-11-19T14:00:37;23.80;42.10
49184;DHT22;35021;49.214;12.270;2023-11-19T14:03:04;23.90;42.10
49184;DHT22;35021;49.214;12.270;2023-11-19T14:05:32;23.90;42.00
49184;DHT22;35021;49.214;12.270;2023-11-19T14:08:02;23.80;41.90
49184;DHT22;35021;49.214;12.270;2023-11-19T14:10:34;23.80;42.00
49184;DHT22;35021;49.214;12.270;2023-11-19T14:13:01;23.80;42.10
49184;DHT22;35021;49.214;12.270;2023-11-19T14:15:28;23.70;42.10
49184;DHT22;35021;49.214;12.270;2023-11-19T14:17:55;23.70;42.30
49184;DHT22;35021;49.214;12.270;2023-11-19T14:20:22;23.50;42.30
49184;DHT22;35021;49.214;12.270;2023-11-19T14:22:49;23.50;42.40
49184;DHT22;35021;49.214;12.270;2023-11-19T14:25:18;23.50;42.80
49184;DHT22;35021;49.214;12.270;2023-11-19T14:27:45;23.40;42.40
49184;DHT22;35021;49.214;12.270;2023-11-19T14:30:15;23.40;42.50
49184;DHT22;35021;49.214;12.270;2023-11-19T14:32:43;23.40;42.50
49184;DHT22;35021;49.214;12.270;2023-11-19T14:35:14;23.40;42.40
49184;DHT22;35021;49.214;12.270;2023-11-19T14:37:41;23.40;42.30
49184;DHT22;35021;49.214;12.270;2023-11-19T14:40:11;23.40;42.20
49184;DHT22;35021;49.214;12.270;2023-11-19T14:42:39;23.50;42.20
49184;DHT22;35021;49.214;12.270;2023-11-19T14:45:06;23.60;42.10
49184;DHT22;35021;49.214;12.270;2023-11-19T14:47:34;23.60;41.90
49184;DHT22;35021;49.214;12.270;2023-11-19T14:50:01;23.70;41.80
49184;DHT22;35021;49.214;12.270;2023-11-19T14:52:28;23.70;41.70
49184;DHT22;35021;49.214;12.270;2023-11-19T14:54:55;23.80;41.40
49184;DHT22;35021;49.214;12.270;2023-11-19T14:57:23;23.80;41.30
49184;DHT22;35021;49.214;12.270;2023-11-19T14:59:50;23.80;41.20
49184;DHT22;35021;49.214;12.270;2023-11-19T15:02:17;23.90;41.10
49184;DHT22;35021;49.214;12.270;2023-11-19T15:04:44;23.90;41.00
49184;DHT22;35021;49.214;12.270;2023-11-19T15:07:12;23.90;41.00
49184;DHT22;35021;49.214;12.270;2023-11-19T15:09:39;23.90;41.00
49184;DHT22;35021;49.214;12.270;2023-11-19T15:12:06;23.80;41.00
49184;DHT22;35021;49.214;12.270;2023-11-19T15:14:33;23.80;41.00
49184;DHT22;35021;49.214;12.270;2023-11-19T15:17:00;23.70;41.00
49184;DHT22;35021;49.214;12.270;2023-11-19T15:19:28;23.70;41.00
49184;DHT22;35021;49.214;12.270;2023-11-19T15:21:55;23.70;41.20
49184;DHT22;35021;49.214;12.270;2023-11-19T15:24:22;23.60;41.10
49184;DHT22;35021;49.214;12.270;2023-11-19T15:26:49;23.50;41.20
49184;DHT22;35021;49.214;12.270;2023-11-19T15:29:16;23.40;41.20
49184;DHT22;35021;49.214;12.270;2023-11-19T15:31:43;23.40;41.30
49184;DHT22;35021;49.214;12.270;2023-11-19T15:34:10;23.30;41.30
49184;DHT22;35021;49.214;12.270;2023-11-19T15:36:37;23.30;41.60
49184;DHT22;35021;49.214;12.270;2023-11-19T15:39:04;23.20;41.90
49184;DHT22;35021;49.214;12.270;2023-11-19T15:41:32;23.20;41.60
49184;DHT22;35021;49.214;12.270;2023-11-19T15:43:59;23.10;41.20